createdAt,value
2023-07-08T00:00:22.876Z,4.80
2023-07-08T00:01:22.763Z,4.80
2023-07-08T00:02:22.686Z,4.90
2023-07-08T00:03:22.646Z,4.60
2023-07-08T00:04:22.596Z,5.00
2023-07-08T00:05:22.519Z,4.60
2023-07-08T00:06:22.451Z,5.30
2023-07-08T00:07:22.351Z,4.70
2023-07-08T00:08:22.287Z,4.20
2023-07-08T00:09:22.312Z,4.90
2023-07-08T00:10:22.196Z,4.70
2023-07-08T00:11:22.115Z,4.60
2023-07-08T00:12:22.069Z,4.30
2023-07-08T00:13:22.023Z,4.60
2023-07-08T00:14:21.961Z,4.30
2023-07-08T00:15:21.858Z,4.70
2023-07-08T00:16:21.871Z,4.40
2023-07-08T00:17:21.811Z,4.20
2023-07-08T00:18:21.755Z,4.00
2023-07-08T00:19:21.634Z,4.30
2023-07-08T00:20:21.590Z,4.10
2023-07-08T00:21:21.507Z,3.90
2023-07-08T00:22:21.450Z,4.20
2023-07-08T00:23:21.388Z,3.90
2023-07-08T00:24:21.330Z,3.50
2023-07-08T00:25:21.266Z,3.80
2023-07-08T00:26:21.220Z,4.00
2023-07-08T00:27:21.144Z,3.70
2023-07-08T00:28:21.145Z,3.60
2023-07-08T00:29:21.049Z,3.80
2023-07-08T00:30:20.969Z,3.80
2023-07-08T00:31:20.958Z,3.50
2023-07-08T00:32:20.878Z,3.70
2023-07-08T00:33:20.841Z,3.90
2023-07-08T00:34:20.766Z,3.80
2023-07-08T00:35:20.666Z,3.70
2023-07-08T00:36:20.671Z,3.80
2023-07-08T00:37:20.556Z,4.00
2023-07-08T00:38:20.484Z,4.00
2023-07-08T00:39:20.413Z,3.90
2023-07-08T00:40:20.366Z,3.70
2023-07-08T00:41:20.306Z,3.60
2023-07-08T00:42:20.289Z,3.50
2023-07-08T00:43:20.205Z,3.90
2023-07-08T00:44:20.122Z,3.70
2023-07-08T00:45:20.054Z,3.80
2023-07-08T00:46:20.076Z,3.90
2023-07-08T00:47:19.975Z,4.20
2023-07-08T00:48:19.872Z,3.80
2023-07-08T00:49:19.851Z,4.00
2023-07-08T00:50:19.751Z,4.10
2023-07-08T00:51:19.701Z,3.60
2023-07-08T00:52:19.641Z,3.80
2023-07-08T00:53:19.588Z,3.90
2023-07-08T00:54:19.538Z,4.20
2023-07-08T00:55:19.459Z,3.70
2023-07-08T00:56:19.408Z,4.00
2023-07-08T00:57:19.344Z,3.50
2023-07-08T00:58:19.289Z,3.90
2023-07-08T00:59:19.216Z,3.80
2023-07-08T01:00:19.176Z,3.90
2023-07-08T01:01:19.108Z,4.10
2023-07-08T01:02:19.047Z,4.00
2023-07-08T01:03:19.053Z,4.00
2023-07-08T01:04:18.960Z,4.00
2023-07-08T01:05:18.856Z,4.40
2023-07-08T01:06:18.796Z,4.40
2023-07-08T01:07:18.790Z,4.50
2023-07-08T01:08:18.758Z,4.20
2023-07-08T01:09:18.615Z,4.20
2023-07-08T01:10:18.544Z,3.80
2023-07-08T01:11:18.501Z,4.10
2023-07-08T01:12:18.507Z,4.30
2023-07-08T01:13:18.383Z,4.10
2023-07-08T01:14:18.314Z,4.00
2023-07-08T01:15:18.254Z,4.20
2023-07-08T01:16:18.207Z,4.40
2023-07-08T01:17:18.124Z,3.70
2023-07-08T01:18:18.106Z,4.10
2023-07-08T01:19:17.993Z,3.80
2023-07-08T01:20:17.935Z,3.90
2023-07-08T01:21:17.882Z,4.00
2023-07-08T01:22:17.821Z,4.00
2023-07-08T01:23:17.756Z,4.20
2023-07-08T01:24:17.725Z,4.10
2023-07-08T01:25:17.639Z,3.90
2023-07-08T01:26:17.593Z,4.30
2023-07-08T01:27:17.520Z,4.50
2023-07-08T01:28:17.455Z,3.60
2023-07-08T01:29:17.404Z,3.90
2023-07-08T01:30:17.365Z,4.20
2023-07-08T01:31:17.305Z,3.50
2023-07-08T01:32:17.244Z,4.10
2023-07-08T01:33:17.154Z,4.20
2023-07-08T01:34:17.117Z,4.00
2023-07-08T01:35:17.035Z,4.10
2023-07-08T01:36:16.996Z,4.40
2023-07-08T01:37:16.904Z,4.10
2023-07-08T01:38:16.848Z,4.20
2023-07-08T01:39:16.793Z,4.00
2023-07-08T01:40:16.731Z,3.70
2023-07-08T01:41:16.755Z,3.70
2023-07-08T01:42:16.588Z,3.90
2023-07-08T01:43:16.528Z,4.40
2023-07-08T01:44:16.487Z,4.00
2023-07-08T01:45:16.436Z,4.10
2023-07-08T01:46:16.382Z,3.60
2023-07-08T01:47:16.309Z,3.90
2023-07-08T01:48:16.268Z,4.00
2023-07-08T01:49:16.170Z,4.00
2023-07-08T01:50:16.108Z,3.70
2023-07-08T01:51:16.085Z,3.60
2023-07-08T01:52:15.987Z,3.50
2023-07-08T01:53:15.946Z,3.90
2023-07-08T01:54:15.880Z,3.80
2023-07-08T01:55:15.810Z,3.70
2023-07-08T01:56:15.735Z,3.80
2023-07-08T01:57:15.689Z,3.90
2023-07-08T01:58:15.636Z,3.80
2023-07-08T01:59:15.592Z,3.80
2023-07-08T02:00:15.497Z,4.00
2023-07-08T02:01:15.447Z,3.70
2023-07-08T02:02:15.398Z,3.70
2023-07-08T02:03:15.327Z,3.60
2023-07-08T02:04:15.247Z,3.90
2023-07-08T02:05:15.272Z,3.60
2023-07-08T02:06:15.155Z,3.60
2023-07-08T02:07:15.089Z,4.10
2023-07-08T02:08:15.040Z,3.50
2023-07-08T02:09:14.959Z,3.80
2023-07-08T02:10:14.886Z,4.00
2023-07-08T02:11:14.822Z,4.10
2023-07-08T02:12:14.789Z,3.50
2023-07-08T02:13:14.736Z,3.40
2023-07-08T02:14:14.709Z,3.80
2023-07-08T02:15:14.649Z,3.50
2023-07-08T02:16:14.584Z,3.70
2023-07-08T02:17:14.465Z,3.70
2023-07-08T02:18:14.399Z,3.20
2023-07-08T02:19:14.358Z,3.30
2023-07-08T02:20:14.266Z,3.20
2023-07-08T02:21:14.219Z,2.80
2023-07-08T02:22:14.173Z,2.90
2023-07-08T02:23:14.114Z,2.70
2023-07-08T02:24:14.062Z,3.30
2023-07-08T02:25:14.001Z,3.30
2023-07-08T02:26:13.901Z,3.20
2023-07-08T02:27:13.862Z,3.50
2023-07-08T02:28:13.809Z,3.50
2023-07-08T02:29:13.756Z,3.50
2023-07-08T02:30:13.667Z,3.80
2023-07-08T02:31:13.646Z,3.40
2023-07-08T02:32:13.588Z,3.40
2023-07-08T02:33:13.481Z,3.40
2023-07-08T02:34:13.445Z,3.40
2023-07-08T02:35:13.407Z,3.90
2023-07-08T02:36:13.291Z,3.60
2023-07-08T02:37:13.280Z,3.60
2023-07-08T02:38:13.232Z,3.60
2023-07-08T02:39:13.150Z,3.60
2023-07-08T02:40:13.061Z,3.60
2023-07-08T02:41:13.016Z,3.10
2023-07-08T02:42:12.980Z,3.50
2023-07-08T02:43:12.928Z,3.60
2023-07-08T02:44:12.820Z,3.40
2023-07-08T02:45:12.787Z,3.30
2023-07-08T02:46:12.721Z,3.40
2023-07-08T02:47:12.714Z,3.30
2023-07-08T02:48:12.626Z,3.30
2023-07-08T02:49:12.512Z,3.00
2023-07-08T02:50:12.501Z,3.30
2023-07-08T02:51:12.397Z,3.60
2023-07-08T02:52:12.333Z,3.60
2023-07-08T02:53:12.263Z,3.20
2023-07-08T02:54:12.203Z,3.50
2023-07-08T02:55:12.158Z,3.50
2023-07-08T02:56:12.105Z,3.60
2023-07-08T02:57:12.019Z,3.70
2023-07-08T02:58:11.997Z,3.70
2023-07-08T02:59:11.904Z,3.80
2023-07-08T03:00:11.851Z,3.50
2023-07-08T03:01:11.809Z,3.30
2023-07-08T03:02:11.707Z,3.70
2023-07-08T03:03:11.745Z,3.70
2023-07-08T03:04:11.608Z,3.20
2023-07-08T03:05:11.621Z,3.50
2023-07-08T03:06:11.487Z,3.70
2023-07-08T03:07:11.440Z,3.60
2023-07-08T03:08:11.334Z,3.60
2023-07-08T03:09:11.315Z,4.00
2023-07-08T03:10:11.271Z,4.00
2023-07-08T03:11:11.178Z,3.60
2023-07-08T03:12:11.118Z,3.50
2023-07-08T03:13:11.077Z,3.70
2023-07-08T03:14:11.087Z,3.80
2023-07-08T03:15:10.941Z,4.00
2023-07-08T03:16:10.860Z,3.60
2023-07-08T03:17:10.871Z,3.50
2023-07-08T03:18:10.749Z,3.50
2023-07-08T03:19:10.696Z,3.60
2023-07-08T03:20:10.651Z,3.10
2023-07-08T03:21:10.622Z,3.40
2023-07-08T03:22:10.505Z,3.40
2023-07-08T03:23:10.433Z,3.10
2023-07-08T03:24:10.379Z,3.20
2023-07-08T03:25:10.385Z,3.10
2023-07-08T03:26:10.247Z,3.10
2023-07-08T03:27:10.214Z,3.40
2023-07-08T03:28:10.142Z,3.10
2023-07-08T03:29:10.107Z,3.30
2023-07-08T03:30:10.044Z,3.40
2023-07-08T03:31:10.003Z,3.30
2023-07-08T03:32:09.919Z,3.40
2023-07-08T03:33:09.830Z,3.30
2023-07-08T03:34:09.761Z,3.20
2023-07-08T03:35:09.711Z,3.60
2023-07-08T03:36:09.623Z,3.30
2023-07-08T03:37:09.570Z,3.30
2023-07-08T03:38:09.516Z,3.60
2023-07-08T03:39:09.447Z,3.30
2023-07-08T03:40:09.396Z,3.30
2023-07-08T03:41:09.380Z,3.40
2023-07-08T03:42:09.262Z,3.30
2023-07-08T03:43:09.277Z,3.30
2023-07-08T03:44:09.136Z,3.40
2023-07-08T03:45:09.092Z,3.40
2023-07-08T03:46:09.064Z,3.10
2023-07-08T03:47:08.964Z,3.30
2023-07-08T03:48:08.894Z,3.40
2023-07-08T03:49:08.870Z,3.50
2023-07-08T03:50:08.777Z,3.70
2023-07-08T03:51:08.712Z,3.70
2023-07-08T03:52:08.686Z,3.60
2023-07-08T03:53:08.653Z,3.80
2023-07-08T03:54:08.539Z,3.80
2023-07-08T03:55:08.493Z,3.20
2023-07-08T03:56:08.417Z,3.50
2023-07-08T03:57:08.394Z,3.70
2023-07-08T03:58:08.284Z,3.10
2023-07-08T03:59:08.261Z,3.00
2023-07-08T04:00:08.170Z,3.20
2023-07-08T04:01:08.134Z,3.00
2023-07-08T04:02:08.068Z,2.90
2023-07-08T04:03:08.045Z,2.60
2023-07-08T04:04:07.947Z,2.30
2023-07-08T04:05:07.874Z,2.10
2023-07-08T04:06:07.822Z,2.60
2023-07-08T04:07:07.758Z,2.90
2023-07-08T04:08:07.677Z,2.90
2023-07-08T04:09:07.613Z,3.50
2023-07-08T04:10:07.555Z,3.50
2023-07-08T04:11:07.535Z,3.20
2023-07-08T04:12:07.493Z,3.10
2023-07-08T04:13:07.381Z,3.30
2023-07-08T04:14:07.403Z,3.20
2023-07-08T04:15:07.248Z,3.30
2023-07-08T04:16:07.232Z,3.30
2023-07-08T04:17:07.134Z,3.30
2023-07-08T04:18:07.096Z,3.10
2023-07-08T04:19:07.017Z,3.20
2023-07-08T04:20:06.958Z,3.20
2023-07-08T04:22:06.835Z,3.00
2023-07-08T04:23:06.751Z,3.30
2023-07-08T04:24:06.713Z,3.00
2023-07-08T04:25:06.666Z,3.10
2023-07-08T04:26:06.670Z,2.90
2023-07-08T04:27:06.579Z,3.20
2023-07-08T04:28:06.463Z,3.10
2023-07-08T04:29:06.463Z,2.90
2023-07-08T04:30:06.366Z,3.00
2023-07-08T04:31:06.384Z,3.10
2023-07-08T04:32:06.213Z,2.60
2023-07-08T04:33:06.189Z,2.70
2023-07-08T04:34:06.103Z,2.80
2023-07-08T04:35:06.033Z,2.70
2023-07-08T04:36:05.971Z,2.50
2023-07-08T04:37:05.931Z,2.60
2023-07-08T04:38:05.871Z,2.60
2023-07-08T04:39:05.836Z,2.40
2023-07-08T04:40:05.737Z,2.30
2023-07-08T04:41:05.702Z,2.40
2023-07-08T04:42:05.610Z,2.40
2023-07-08T04:43:05.611Z,2.90
2023-07-08T04:44:05.465Z,2.90
2023-07-08T04:45:05.442Z,2.70
2023-07-08T04:46:05.428Z,2.30
2023-07-08T04:47:05.297Z,2.60
2023-07-08T04:48:05.322Z,2.80
2023-07-08T04:49:05.194Z,2.60
2023-07-08T04:50:05.115Z,2.60
2023-07-08T04:51:05.086Z,2.50
2023-07-08T04:52:05.005Z,2.70
2023-07-08T04:53:04.958Z,2.60
2023-07-08T04:54:04.888Z,2.20
2023-07-08T04:55:04.801Z,2.30
2023-07-08T04:56:04.758Z,2.00
2023-07-08T04:57:04.684Z,2.40
2023-07-08T04:58:04.806Z,2.60
2023-07-08T04:59:04.659Z,2.70
2023-07-08T05:00:04.509Z,2.60
2023-07-08T05:01:04.460Z,2.80
2023-07-08T05:02:04.481Z,2.50
2023-07-08T05:03:04.374Z,2.70
2023-07-08T05:04:04.355Z,2.50
2023-07-08T05:05:04.239Z,2.80
2023-07-08T05:06:04.179Z,2.80
2023-07-08T05:07:04.109Z,2.90
2023-07-08T05:08:04.019Z,3.20
2023-07-08T05:09:03.989Z,3.10
2023-07-08T05:10:03.904Z,2.80
2023-07-08T05:11:03.872Z,3.10
2023-07-08T05:12:03.801Z,3.00
2023-07-08T05:13:03.724Z,3.00
2023-07-08T05:14:03.733Z,3.00
2023-07-08T05:15:05.070Z,2.70
2023-07-08T05:16:03.567Z,2.60
2023-07-08T05:17:03.480Z,2.30
2023-07-08T05:18:03.513Z,2.40
2023-07-08T05:19:03.387Z,2.80
2023-07-08T05:20:03.307Z,3.00
2023-07-08T05:21:03.239Z,2.90
2023-07-08T05:22:03.195Z,2.80
2023-07-08T05:23:03.134Z,3.10
2023-07-08T05:24:03.080Z,2.90
2023-07-08T05:25:03.013Z,2.90
2023-07-08T05:26:02.961Z,3.20
2023-07-08T05:27:02.881Z,2.60
2023-07-08T05:28:02.816Z,2.60
2023-07-08T05:29:02.793Z,3.20
2023-07-08T05:30:02.734Z,3.00
2023-07-08T05:31:02.876Z,3.00
2023-07-08T05:32:02.617Z,2.60
2023-07-08T05:33:02.610Z,2.70
2023-07-08T05:34:02.488Z,3.10
2023-07-08T05:35:02.405Z,3.30
2023-07-08T05:36:02.349Z,3.00
2023-07-08T05:37:02.289Z,3.30
2023-07-08T05:38:02.236Z,3.10
2023-07-08T05:39:02.187Z,3.30
2023-07-08T05:40:02.121Z,2.80
2023-07-08T05:41:02.377Z,2.40
2023-07-08T05:42:02.015Z,2.60
2023-07-08T05:43:01.940Z,3.00
2023-07-08T05:44:01.866Z,3.20
2023-07-08T05:45:01.872Z,3.30
2023-07-08T05:46:09.950Z,2.80
2023-07-08T05:47:01.810Z,3.00
2023-07-08T05:48:01.701Z,3.00
2023-07-08T05:49:02.265Z,2.30
2023-07-08T05:50:01.533Z,2.50
2023-07-08T05:51:01.850Z,2.80
2023-07-08T05:52:01.387Z,3.00
2023-07-08T05:53:01.325Z,2.30
2023-07-08T05:54:01.265Z,2.50
2023-07-08T05:55:01.213Z,2.90
2023-07-08T05:56:01.228Z,2.90
2023-07-08T05:57:01.131Z,2.90
2023-07-08T05:58:01.018Z,2.50
2023-07-08T05:59:00.978Z,2.50
2023-07-08T06:00:00.917Z,2.80
2023-07-08T06:01:01.272Z,2.80
2023-07-08T06:02:00.850Z,2.80
2023-07-08T06:03:00.816Z,2.70
2023-07-08T06:04:00.804Z,2.60
2023-07-08T06:05:00.673Z,2.90
2023-07-08T06:06:00.601Z,2.10
2023-07-08T06:07:00.527Z,2.50
2023-07-08T06:08:00.452Z,3.00
2023-07-08T06:09:00.421Z,2.80
2023-07-08T06:10:00.350Z,2.70
2023-07-08T06:11:00.569Z,2.70
2023-07-08T06:12:00.219Z,2.60
2023-07-08T06:13:00.187Z,3.10
2023-07-08T06:14:00.138Z,2.60
2023-07-08T06:15:00.051Z,2.60
2023-07-08T06:16:00.032Z,2.90
2023-07-08T06:17:00.000Z,2.40
2023-07-08T06:17:59.952Z,2.10
2023-07-08T06:18:59.817Z,2.50
2023-07-08T06:19:59.780Z,2.40
2023-07-08T06:21:00.009Z,2.20
2023-07-08T06:22:19.634Z,2.60
2023-07-08T06:22:59.580Z,2.50
2023-07-08T06:23:59.532Z,2.20
2023-07-08T06:24:59.486Z,2.30
2023-07-08T06:25:59.431Z,2.30
2023-07-08T06:26:59.884Z,2.40
2023-07-08T06:27:59.346Z,2.30
2023-07-08T06:28:59.292Z,2.40
2023-07-08T06:29:59.185Z,2.20
2023-07-08T06:30:59.351Z,2.50
2023-07-08T06:31:59.154Z,2.50
2023-07-08T06:33:01.350Z,2.80
2023-07-08T06:33:59.034Z,2.60
2023-07-08T06:34:59.018Z,2.50
2023-07-08T06:35:58.864Z,2.70
2023-07-08T06:36:58.800Z,2.60
2023-07-08T06:37:58.742Z,2.90
2023-07-08T06:38:58.674Z,2.30
2023-07-08T06:39:58.642Z,2.60
2023-07-08T06:40:58.889Z,2.50
2023-07-08T06:41:58.558Z,2.40
2023-07-08T06:42:58.476Z,2.40
2023-07-08T06:43:58.408Z,2.50
2023-07-08T06:44:58.342Z,2.40
2023-07-08T06:45:58.357Z,2.50
2023-07-08T06:46:58.272Z,2.80
2023-07-08T06:47:58.358Z,2.30
2023-07-08T06:48:58.139Z,2.40
2023-07-08T06:49:59.655Z,2.30
2023-07-08T06:50:58.340Z,2.20
2023-07-08T06:51:58.025Z,2.30
2023-07-08T06:52:57.914Z,2.20
2023-07-08T06:53:57.870Z,2.10
2023-07-08T06:54:57.808Z,2.20
2023-07-08T06:55:57.779Z,2.10
2023-07-08T06:56:57.819Z,2.20
2023-07-08T06:57:57.645Z,2.00
2023-07-08T06:58:57.614Z,2.00
2023-07-08T06:59:57.543Z,2.00
2023-07-08T07:00:57.599Z,2.20
2023-07-08T07:01:57.509Z,2.00
2023-07-08T07:02:57.428Z,2.10
2023-07-08T07:03:57.365Z,2.20
2023-07-08T07:04:57.277Z,2.30
2023-07-08T07:05:57.251Z,2.20
2023-07-08T07:06:57.171Z,1.90
2023-07-08T07:07:57.115Z,2.30
2023-07-08T07:08:57.103Z,1.70
2023-07-08T07:09:57.018Z,1.80
2023-07-08T07:10:56.974Z,1.70
2023-07-08T07:11:56.931Z,1.80
2023-07-08T07:12:56.852Z,1.70
2023-07-08T07:13:56.896Z,1.80
2023-07-08T07:14:56.764Z,1.70
2023-07-08T07:15:56.786Z,1.80
2023-07-08T07:17:07.521Z,1.90
2023-07-08T07:17:56.707Z,1.90
2023-07-08T07:18:56.543Z,2.00
2023-07-08T07:19:56.532Z,1.70
2023-07-08T07:20:56.428Z,1.70
2023-07-08T07:21:56.462Z,1.70
2023-07-08T07:22:56.416Z,1.70
2023-07-08T07:23:56.278Z,1.60
2023-07-08T07:24:56.250Z,1.80
2023-07-08T07:25:56.213Z,1.50
2023-07-08T07:26:56.137Z,1.40
2023-07-08T07:27:56.088Z,1.70
2023-07-08T07:28:56.043Z,1.80
2023-07-08T07:29:56.102Z,1.80
2023-07-08T07:30:55.998Z,1.60
2023-07-08T07:31:55.960Z,1.50
2023-07-08T07:32:55.913Z,1.80
2023-07-08T07:33:55.806Z,1.30
2023-07-08T07:34:55.755Z,1.40
2023-07-08T07:35:55.700Z,1.30
2023-07-08T07:36:58.179Z,1.40
2023-07-08T07:37:55.595Z,1.50
2023-07-08T07:38:55.642Z,1.40
2023-07-08T07:39:55.479Z,1.40
2023-07-08T07:40:55.507Z,1.20
2023-07-08T07:41:55.379Z,1.50
2023-07-08T07:42:55.380Z,1.50
2023-07-08T07:43:55.277Z,1.30
2023-07-08T07:44:55.230Z,1.30
2023-07-08T07:45:55.178Z,1.30
2023-07-08T07:46:55.202Z,1.30
2023-07-08T07:47:55.106Z,1.20
2023-07-08T07:48:55.053Z,1.30
2023-07-08T07:49:54.992Z,1.30
2023-07-08T07:50:54.959Z,1.20
2023-07-08T07:51:54.889Z,1.10
2023-07-08T07:52:54.873Z,1.20
2023-07-08T07:53:54.795Z,1.30
2023-07-08T07:54:54.748Z,1.60
2023-07-08T07:55:54.724Z,1.60
2023-07-08T07:56:54.695Z,1.60
2023-07-08T07:57:54.614Z,1.60
2023-07-08T07:58:54.545Z,1.70
2023-07-08T07:59:54.538Z,1.80
2023-07-08T08:00:54.496Z,1.50
2023-07-08T08:01:54.482Z,1.50
2023-07-08T08:02:54.378Z,1.50
2023-07-08T08:03:54.437Z,1.90
2023-07-08T08:04:54.274Z,1.90
2023-07-08T08:05:54.192Z,1.80
2023-07-08T08:06:54.175Z,1.50
2023-07-08T08:07:54.144Z,1.80
2023-07-08T08:08:54.049Z,1.70
2023-07-08T08:09:53.993Z,1.70
2023-07-08T08:10:53.958Z,1.70
2023-07-08T08:11:53.989Z,1.70
2023-07-08T08:12:54.424Z,1.70
2023-07-08T08:13:53.838Z,1.60
2023-07-08T08:14:53.738Z,1.90
2023-07-08T08:15:53.682Z,1.80
2023-07-08T08:16:53.721Z,2.10
2023-07-08T08:17:53.902Z,1.70
2023-07-08T08:18:53.595Z,1.80
2023-07-08T08:19:53.522Z,2.10
2023-07-08T08:20:53.419Z,2.10
2023-07-08T08:21:53.378Z,2.00
2023-07-08T08:22:53.333Z,2.00
2023-07-08T08:23:53.266Z,2.00
2023-07-08T08:24:53.222Z,2.20
2023-07-08T08:25:53.260Z,1.90
2023-07-08T08:26:53.167Z,1.70
2023-07-08T08:27:53.053Z,1.90
2023-07-08T08:28:53.003Z,1.70
2023-07-08T08:29:52.957Z,1.80
2023-07-08T08:30:52.912Z,2.00
2023-07-08T08:31:52.870Z,1.90
2023-07-08T08:32:52.803Z,1.90
2023-07-08T08:33:52.777Z,2.40
2023-07-08T08:34:52.737Z,1.90
2023-07-08T08:35:52.728Z,2.00
2023-07-08T08:36:52.698Z,1.90
2023-07-08T08:37:52.588Z,1.80
2023-07-08T08:38:52.569Z,1.90
2023-07-08T08:39:52.412Z,1.80
2023-07-08T08:40:52.353Z,1.60
2023-07-08T08:41:52.325Z,1.60
2023-07-08T08:42:52.265Z,1.70
2023-07-08T08:43:52.757Z,1.90
2023-07-08T08:44:52.142Z,2.20
2023-07-08T08:45:52.094Z,2.00
2023-07-08T08:46:52.172Z,2.10
2023-07-08T08:47:52.056Z,1.90
2023-07-08T08:48:51.941Z,2.00
2023-07-08T08:49:51.882Z,1.90
2023-07-08T08:50:51.908Z,2.00
2023-07-08T08:51:51.788Z,2.10
2023-07-08T08:52:51.716Z,2.30
2023-07-08T08:53:51.685Z,2.30
2023-07-08T08:54:51.597Z,2.30
2023-07-08T08:55:51.556Z,2.20
2023-07-08T08:56:51.513Z,2.00
2023-07-08T08:57:51.445Z,2.00
2023-07-08T08:58:51.399Z,2.20
2023-07-08T08:59:51.377Z,2.00
2023-07-08T09:00:51.326Z,2.20
2023-07-08T09:01:51.277Z,2.30
2023-07-08T09:02:51.200Z,1.80
2023-07-08T09:03:51.190Z,2.00
2023-07-08T09:04:51.070Z,1.90
2023-07-08T09:05:51.033Z,2.20
2023-07-08T09:06:53.777Z,1.90
2023-07-08T09:07:50.945Z,2.00
2023-07-08T09:08:50.861Z,2.00
2023-07-08T09:09:50.806Z,1.70
2023-07-08T09:10:50.773Z,1.70
2023-07-08T09:11:50.732Z,2.10
2023-07-08T09:12:50.702Z,2.00
2023-07-08T09:13:50.806Z,2.00
2023-07-08T09:14:50.571Z,2.00
2023-07-08T09:15:50.496Z,1.90
2023-07-08T09:16:50.536Z,2.20
2023-07-08T09:17:50.457Z,1.90
2023-07-08T09:18:50.315Z,1.90
2023-07-08T09:19:50.283Z,2.00
2023-07-08T09:20:50.229Z,2.10
2023-07-08T09:21:50.157Z,2.00
2023-07-08T09:22:50.146Z,2.10
2023-07-08T09:23:50.049Z,1.80
2023-07-08T09:24:49.995Z,2.00
2023-07-08T09:25:49.940Z,1.70
2023-07-08T09:26:49.943Z,1.90
2023-07-08T09:27:49.904Z,1.90
2023-07-08T09:28:49.818Z,2.00
2023-07-08T09:29:49.750Z,1.60
2023-07-08T09:30:49.713Z,1.80
2023-07-08T09:31:49.732Z,1.80
2023-07-08T09:32:49.627Z,1.80
2023-07-08T09:33:49.601Z,1.80
2023-07-08T09:34:49.508Z,1.90
2023-07-08T09:35:49.622Z,2.00
2023-07-08T09:36:49.358Z,1.70
2023-07-08T09:37:49.488Z,2.00
2023-07-08T09:38:49.872Z,2.90
2023-07-08T09:39:49.191Z,2.30
2023-07-08T09:40:49.118Z,2.00
2023-07-08T09:41:49.068Z,2.00
2023-07-08T09:42:49.139Z,1.90
2023-07-08T09:43:48.954Z,2.20
2023-07-08T09:44:48.918Z,2.10
2023-07-08T09:45:49.023Z,2.10
2023-07-08T09:46:49.008Z,1.80
2023-07-08T09:47:48.889Z,2.30
2023-07-08T09:48:48.736Z,2.00
2023-07-08T09:49:48.622Z,1.90
2023-07-08T09:50:48.582Z,2.10
2023-07-08T09:51:48.528Z,2.10
2023-07-08T09:52:48.518Z,1.80
2023-07-08T09:53:48.414Z,1.90
2023-07-08T09:54:48.366Z,1.90
2023-07-08T09:55:48.399Z,1.90
2023-07-08T09:56:48.291Z,1.90
2023-07-08T09:57:48.212Z,2.10
2023-07-08T09:58:48.141Z,2.00
2023-07-08T09:59:48.100Z,2.30
2023-07-08T10:00:48.029Z,2.10
2023-07-08T10:01:48.026Z,2.00
2023-07-08T10:02:47.957Z,1.70
2023-07-08T10:03:47.922Z,2.00
2023-07-08T10:04:47.826Z,2.10
2023-07-08T10:05:47.772Z,1.80
2023-07-08T10:06:47.752Z,1.80
2023-07-08T10:07:47.677Z,2.00
2023-07-08T10:08:47.627Z,2.00
2023-07-08T10:09:47.557Z,2.00
2023-07-08T10:10:47.559Z,1.90
2023-07-08T10:11:47.488Z,1.90
2023-07-08T10:12:47.423Z,1.50
2023-07-08T10:13:51.030Z,1.90
2023-07-08T10:14:47.315Z,1.90
2023-07-08T10:15:47.246Z,2.10
2023-07-08T10:16:47.371Z,1.70
2023-07-08T10:17:47.137Z,1.90
2023-07-08T10:18:47.063Z,1.70
2023-07-08T10:19:47.017Z,2.00
2023-07-08T10:20:46.956Z,1.50
2023-07-08T10:21:46.908Z,2.00
2023-07-08T10:22:46.870Z,2.00
2023-07-08T10:23:46.821Z,1.80
2023-07-08T10:24:48.927Z,1.80
2023-07-08T10:25:46.701Z,2.10
2023-07-08T10:26:46.620Z,1.80
2023-07-08T10:27:46.590Z,1.90
2023-07-08T10:28:46.524Z,1.90
2023-07-08T10:29:46.497Z,2.10
2023-07-08T10:30:46.540Z,2.10
2023-07-08T10:31:46.418Z,2.10
2023-07-08T10:32:46.394Z,2.00
2023-07-08T10:33:46.258Z,1.80
2023-07-08T10:34:46.199Z,2.00
2023-07-08T10:35:46.144Z,1.80
2023-07-08T10:36:46.128Z,1.80
2023-07-08T10:37:46.014Z,1.90
2023-07-08T10:38:45.974Z,1.90
2023-07-08T10:39:45.926Z,1.90
2023-07-08T10:40:45.884Z,2.10
2023-07-08T10:41:45.856Z,2.00
2023-07-08T10:42:45.767Z,1.80
2023-07-08T10:43:45.702Z,1.80
2023-07-08T10:44:45.666Z,1.90
2023-07-08T10:45:45.658Z,1.90
2023-07-08T10:46:45.580Z,1.90
2023-07-08T10:47:45.538Z,2.00
2023-07-08T10:48:45.466Z,1.90
2023-07-08T10:49:45.412Z,2.00
2023-07-08T10:50:45.325Z,1.90
2023-07-08T10:51:45.276Z,1.70
2023-07-08T10:52:45.225Z,1.50
2023-07-08T10:53:45.181Z,1.50
2023-07-08T10:54:45.189Z,1.70
2023-07-08T10:55:45.088Z,1.70
2023-07-08T10:56:45.034Z,1.50
2023-07-08T10:57:44.986Z,1.40
2023-07-08T10:58:44.922Z,1.50
2023-07-08T10:59:44.888Z,1.30
2023-07-08T11:00:44.874Z,1.60
2023-07-08T11:01:44.907Z,1.60
2023-07-08T11:02:44.832Z,1.30
2023-07-08T11:03:44.775Z,1.00
2023-07-08T11:04:44.613Z,1.50
2023-07-08T11:05:44.553Z,1.50
2023-07-08T11:06:44.494Z,1.30
2023-07-08T11:07:44.454Z,1.20
2023-07-08T11:08:44.411Z,1.10
2023-07-08T11:09:44.426Z,1.20
2023-07-08T11:10:44.317Z,1.10
2023-07-08T11:11:44.298Z,1.00
2023-07-08T11:12:44.227Z,1.00
2023-07-08T11:13:44.227Z,1.00
2023-07-08T11:14:44.136Z,1.20
2023-07-08T11:15:44.162Z,1.30
2023-07-08T11:16:44.115Z,1.60
2023-07-08T11:17:44.074Z,1.80
2023-07-08T11:18:44.084Z,1.50
2023-07-08T11:19:43.894Z,1.30
2023-07-08T11:20:43.866Z,1.10
2023-07-08T11:21:46.371Z,1.50
2023-07-08T11:22:43.765Z,1.10
2023-07-08T11:23:43.785Z,1.00
2023-07-08T11:24:43.755Z,1.00
2023-07-08T11:25:43.803Z,1.60
2023-07-08T11:26:43.694Z,1.00
2023-07-08T11:27:43.602Z,1.00
2023-07-08T11:28:43.572Z,0.90
2023-07-08T11:29:43.471Z,1.00
2023-07-08T11:30:43.414Z,0.90
2023-07-08T11:31:43.430Z,1.10
2023-07-08T11:32:43.394Z,0.90
2023-07-08T11:33:43.305Z,0.90
2023-07-08T11:34:43.318Z,0.90
2023-07-08T11:35:43.201Z,0.90
2023-07-08T11:36:43.182Z,1.10
2023-07-08T11:37:43.251Z,0.90
2023-07-08T11:38:43.194Z,0.80
2023-07-08T11:39:43.086Z,1.00
2023-07-08T11:40:43.021Z,0.80
2023-07-08T11:41:43.060Z,0.90
2023-07-08T11:42:43.310Z,0.70
2023-07-08T11:43:42.909Z,0.90
2023-07-08T11:44:42.896Z,0.80
2023-07-08T11:45:42.829Z,1.00
2023-07-08T11:46:42.771Z,1.10
2023-07-08T11:47:42.797Z,1.10
2023-07-08T11:48:42.782Z,0.90
2023-07-08T11:49:44.086Z,0.90
2023-07-08T11:50:42.621Z,1.20
2023-07-08T11:51:42.583Z,0.80
2023-07-08T11:52:42.535Z,0.90
2023-07-08T11:53:42.520Z,0.90
2023-07-08T11:54:42.476Z,0.90
2023-07-08T11:55:42.427Z,0.90
2023-07-08T11:56:42.430Z,0.80
2023-07-08T11:57:42.382Z,0.80
2023-07-08T11:58:42.331Z,0.70
2023-07-08T11:59:42.273Z,0.80
2023-07-08T12:00:42.289Z,0.80
2023-07-08T12:01:42.253Z,0.90
2023-07-08T12:02:42.211Z,0.80
2023-07-08T12:03:42.210Z,0.90
2023-07-08T12:04:42.069Z,1.00
2023-07-08T12:05:42.035Z,0.90
2023-07-08T12:06:42.089Z,0.90
2023-07-08T12:07:41.975Z,0.90
2023-07-08T12:08:41.949Z,0.90
2023-07-08T12:09:41.868Z,1.10
2023-07-08T12:10:41.841Z,1.00
2023-07-08T12:11:41.819Z,1.10
2023-07-08T12:12:41.787Z,1.00
2023-07-08T12:13:41.773Z,0.90
2023-07-08T12:14:41.674Z,1.00
2023-07-08T12:15:41.662Z,1.10
2023-07-08T12:16:41.619Z,1.10
2023-07-08T12:17:41.645Z,1.00
2023-07-08T12:18:41.548Z,1.00
2023-07-08T12:19:41.479Z,0.90
2023-07-08T12:20:41.484Z,0.90
2023-07-08T12:21:41.488Z,1.00
2023-07-08T12:22:41.353Z,1.00
2023-07-08T12:23:42.771Z,1.10
2023-07-08T12:24:41.621Z,1.00
2023-07-08T12:25:41.278Z,1.00
2023-07-08T12:26:41.276Z,0.90
2023-07-08T12:27:41.248Z,1.00
2023-07-08T12:28:41.119Z,0.90
2023-07-08T12:29:41.164Z,1.00
2023-07-08T12:30:41.099Z,1.00
2023-07-08T12:31:41.072Z,1.10
2023-07-08T12:32:41.102Z,1.20
2023-07-08T12:33:40.960Z,1.20
2023-07-08T12:34:40.951Z,1.10
2023-07-08T12:35:40.849Z,1.00
2023-07-08T12:36:40.812Z,0.90
2023-07-08T12:37:40.768Z,0.90
2023-07-08T12:38:40.714Z,1.00
2023-07-08T12:39:40.713Z,1.10
2023-07-08T12:40:40.631Z,0.90
2023-07-08T12:41:40.627Z,0.90
2023-07-08T12:42:40.564Z,1.00
2023-07-08T12:43:40.523Z,0.90
2023-07-08T12:44:40.491Z,1.00
2023-07-08T12:45:40.448Z,1.10
2023-07-08T12:46:40.438Z,1.00
2023-07-08T12:47:40.422Z,1.10
2023-07-08T12:48:40.317Z,1.00
2023-07-08T12:49:40.286Z,1.10
2023-07-08T12:50:40.240Z,1.10
2023-07-08T12:51:40.221Z,1.00
2023-07-08T12:52:40.174Z,1.10
2023-07-08T12:53:40.150Z,1.00
2023-07-08T12:54:40.114Z,1.10
2023-07-08T12:55:40.038Z,1.10
2023-07-08T12:56:40.039Z,1.00
2023-07-08T12:57:40.041Z,1.10
2023-07-08T12:58:39.993Z,1.00
2023-07-08T12:59:39.897Z,1.00
2023-07-08T13:00:39.862Z,1.00
2023-07-08T13:01:39.840Z,1.20
2023-07-08T13:02:39.841Z,1.10
2023-07-08T13:03:39.825Z,1.10
2023-07-08T13:04:39.679Z,1.00
2023-07-08T13:05:39.635Z,1.00
2023-07-08T13:06:39.659Z,1.10
2023-07-08T13:07:39.607Z,1.10
2023-07-08T13:08:39.508Z,1.10
2023-07-08T13:09:39.474Z,1.40
2023-07-08T13:10:39.472Z,1.40
2023-07-08T13:11:39.422Z,1.30
2023-07-08T13:12:39.402Z,1.20
2023-07-08T13:13:39.360Z,1.30
2023-07-08T13:14:39.242Z,1.30
2023-07-08T13:15:39.190Z,1.80
2023-07-08T13:16:39.223Z,1.60
2023-07-08T13:17:39.131Z,1.30
2023-07-08T13:18:39.073Z,1.30